createdAt,value
2024-01-18T00:01:14.751Z,99660.16
2024-01-18T00:03:41.452Z,99652.81
2024-01-18T00:06:09.079Z,99643.88
2024-01-18T00:08:34.830Z,99647.72
2024-01-18T00:11:01.706Z,99641.72
2024-01-18T00:13:27.540Z,99642.56
2024-01-18T00:15:53.292Z,99636.19
2024-01-18T00:18:19.656Z,99632.94
2024-01-18T00:20:45.644Z,99630.34
2024-01-18T00:23:11.471Z,99628.88
2024-01-18T00:25:37.637Z,99635.38
2024-01-18T00:28:04.095Z,99630.50
2024-01-18T00:30:30.017Z,99619.81
2024-01-18T00:32:55.923Z,99625.91
2024-01-18T00:35:21.718Z,99613.19
2024-01-18T00:37:47.967Z,99606.78
2024-01-18T00:40:15.376Z,99606.78
2024-01-18T00:42:41.168Z,99602.00
2024-01-18T00:45:07.449Z,99604.34
2024-01-18T00:47:33.906Z,99594.63
2024-01-18T00:49:59.612Z,99598.34
2024-01-18T00:52:25.737Z,99592.22
2024-01-18T00:54:51.423Z,99592.34
2024-01-18T00:57:17.124Z,99588.16
2024-01-18T00:59:42.909Z,99580.13
2024-01-18T01:02:09.644Z,99580.78
2024-01-18T01:04:35.826Z,99579.53
2024-01-18T01:07:01.829Z,99581.34
2024-01-18T01:09:27.669Z,99578.19
2024-01-18T01:11:53.473Z,99563.22
2024-01-18T01:14:20.115Z,99562.84
2024-01-18T01:16:45.805Z,99560.25
2024-01-18T01:19:11.673Z,99553.47
2024-01-18T01:21:37.659Z,99544.03
2024-01-18T01:24:04.301Z,99543.09
2024-01-18T01:26:30.582Z,99535.13
2024-01-18T01:28:56.305Z,99545.31
2024-01-18T01:31:22.109Z,99534.63
2024-01-18T01:33:48.670Z,99526.63
2024-01-18T01:36:14.732Z,99532.56
2024-01-18T01:38:40.550Z,99526.53
2024-01-18T01:41:06.979Z,99526.22
2024-01-18T01:43:32.838Z,99514.88
2024-01-18T01:45:58.621Z,99521.06
2024-01-18T01:48:25.438Z,99515.38
2024-01-18T01:50:51.250Z,99521.78
2024-01-18T01:53:19.385Z,99516.19
2024-01-18T01:55:46.532Z,99512.38
2024-01-18T01:58:16.602Z,99511.63
2024-01-18T02:00:43.891Z,99505.34
2024-01-18T02:03:10.029Z,99495.56
2024-01-18T02:05:36.358Z,99495.56
2024-01-18T02:08:02.230Z,99501.47
2024-01-18T02:10:29.041Z,99494.69
2024-01-18T02:12:56.228Z,99493.06
2024-01-18T02:15:22.619Z,99494.69
2024-01-18T02:17:48.405Z,99478.69
2024-01-18T02:20:14.286Z,99477.88
2024-01-18T02:22:46.367Z,99481.72
2024-01-18T02:25:17.937Z,99482.13
2024-01-18T02:27:43.755Z,99469.38
2024-01-18T02:30:09.980Z,99470.84
2024-01-18T02:32:36.137Z,99461.28
2024-01-18T02:35:02.180Z,99468.13
2024-01-18T02:37:28.100Z,99460.22
2024-01-18T02:39:53.926Z,99448.00
2024-01-18T02:42:20.305Z,99453.88
2024-01-18T02:44:46.362Z,99444.22
2024-01-18T02:47:13.367Z,99450.78
2024-01-18T02:49:39.527Z,99442.88
2024-01-18T02:52:06.598Z,99439.00
2024-01-18T02:54:32.332Z,99440.47
2024-01-18T02:56:58.155Z,99427.94
2024-01-18T02:59:23.836Z,99419.72
2024-01-18T03:01:49.503Z,99421.28
2024-01-18T03:04:15.335Z,99436.78
2024-01-18T03:06:41.407Z,99420.81
2024-01-18T03:09:07.174Z,99419.53
2024-01-18T03:11:33.026Z,99419.97
2024-01-18T03:13:58.744Z,99422.53
2024-01-18T03:16:24.413Z,99419.31
2024-01-18T03:18:50.330Z,99422.25
2024-01-18T03:21:16.461Z,99414.81
2024-01-18T03:23:42.174Z,99422.25
2024-01-18T03:26:08.736Z,99419.00
2024-01-18T03:28:34.448Z,99415.94
2024-01-18T03:31:00.166Z,99412.81
2024-01-18T03:33:25.962Z,99416.06
2024-01-18T03:35:51.707Z,99407.22
2024-01-18T03:38:17.399Z,99407.72
2024-01-18T03:40:43.195Z,99400.28
2024-01-18T03:43:09.095Z,99405.34
2024-01-18T03:45:34.810Z,99400.69
2024-01-18T03:48:00.715Z,99399.50
2024-01-18T03:50:26.506Z,99399.94
2024-01-18T03:52:52.186Z,99401.53
2024-01-18T03:55:17.958Z,99396.38
2024-01-18T03:57:43.747Z,99394.78
2024-01-18T04:00:13.788Z,99393.91
2024-01-18T04:02:39.804Z,99399.06
2024-01-18T04:05:06.366Z,99398.22
2024-01-18T04:07:32.054Z,99384.19
2024-01-18T04:09:58.031Z,99396.97
2024-01-18T04:12:24.242Z,99388.91
2024-01-18T04:14:50.000Z,99388.16
2024-01-18T04:17:15.708Z,99383.59
2024-01-18T04:19:41.714Z,99383.41
2024-01-18T04:22:07.996Z,99383.91
2024-01-18T04:24:34.210Z,99388.25
2024-01-18T04:27:00.139Z,99382.81
2024-01-18T04:29:25.995Z,99382.94
2024-01-18T04:31:51.656Z,99382.63
2024-01-18T04:34:17.332Z,99378.59
2024-01-18T04:36:43.117Z,99375.66
2024-01-18T04:39:10.708Z,99383.09
2024-01-18T04:41:38.986Z,99382.28
2024-01-18T04:44:04.793Z,99381.50
2024-01-18T04:46:31.934Z,99379.50
2024-01-18T04:48:57.931Z,99383.09
2024-01-18T04:51:24.043Z,99382.09
2024-01-18T04:53:49.929Z,99390.19
2024-01-18T04:56:16.485Z,99385.69
2024-01-18T04:58:43.694Z,99379.91
2024-01-18T05:01:10.162Z,99377.66
2024-01-18T05:03:35.990Z,99382.03
2024-01-18T05:06:01.956Z,99382.16
2024-01-18T05:08:27.829Z,99382.63
2024-01-18T05:10:55.164Z,99373.81
2024-01-18T05:13:22.295Z,99380.66
2024-01-18T05:15:48.220Z,99376.75
2024-01-18T05:18:15.338Z,99364.47
2024-01-18T05:20:41.295Z,99369.03
2024-01-18T05:23:07.411Z,99365.34
2024-01-18T05:25:34.073Z,99354.84
2024-01-18T05:28:01.586Z,99361.81
2024-01-18T05:30:27.493Z,99358.88
2024-01-18T05:32:53.362Z,99350.03
2024-01-18T05:35:19.169Z,99358.63
2024-01-18T05:37:44.868Z,99352.66
2024-01-18T05:40:10.956Z,99353.63
2024-01-18T05:45:27.133Z,99351.63
2024-01-18T05:50:43.777Z,99335.50
2024-01-18T05:53:09.466Z,99336.34
2024-01-18T05:55:36.537Z,99336.38
2024-01-18T05:58:02.990Z,99334.44
2024-01-18T06:00:28.705Z,99336.88
2024-01-18T06:02:54.953Z,99332.22
2024-01-18T06:05:20.668Z,99339.66
2024-01-18T06:07:46.321Z,99337.72
2024-01-18T06:10:12.040Z,99326.91
2024-01-18T06:12:38.002Z,99328.00
2024-01-18T06:15:04.066Z,99333.84
2024-01-18T06:17:30.010Z,99333.84
2024-01-18T06:19:56.373Z,99332.19
2024-01-18T06:22:23.014Z,99333.00
2024-01-18T06:24:48.741Z,99340.59
2024-01-18T06:27:14.731Z,99331.38
2024-01-18T06:29:40.511Z,99329.59
2024-01-18T06:32:07.577Z,99330.25
2024-01-18T06:34:33.796Z,99332.50
2024-01-18T06:36:59.529Z,99334.44
2024-01-18T06:39:25.283Z,99328.59
2024-01-18T06:41:51.056Z,99331.50
2024-01-18T06:44:16.738Z,99327.13
2024-01-18T06:46:42.413Z,99327.94
2024-01-18T06:49:08.371Z,99319.50
2024-01-18T06:51:34.292Z,99321.13
2024-01-18T06:53:59.978Z,99321.09
2024-01-18T06:56:25.672Z,99318.50
2024-01-18T06:58:51.603Z,99321.41
2024-01-18T07:01:17.421Z,99328.19
2024-01-18T07:03:44.127Z,99312.66
2024-01-18T07:06:10.540Z,99316.03
2024-01-18T07:08:38.557Z,99305.88
2024-01-18T07:11:05.398Z,99308.63
2024-01-18T07:13:31.087Z,99301.84
2024-01-18T07:15:56.885Z,99307.63
2024-01-18T07:18:22.724Z,99299.53
2024-01-18T07:20:48.588Z,99301.00
2024-01-18T07:23:14.768Z,99301.94
2024-01-18T07:25:40.861Z,99293.66
2024-01-18T07:28:06.685Z,99291.06
2024-01-18T07:30:32.692Z,99291.50
2024-01-18T07:32:58.428Z,99296.22
2024-01-18T07:35:24.434Z,99294.38
2024-01-18T07:37:50.155Z,99297.56
2024-01-18T07:40:16.035Z,99292.31
2024-01-18T07:42:42.104Z,99296.19
2024-01-18T07:45:08.944Z,99300.66
2024-01-18T07:47:34.856Z,99295.91
2024-01-18T07:50:10.053Z,99299.19
2024-01-18T07:52:44.726Z,99292.34
2024-01-18T07:55:10.435Z,99277.22
2024-01-18T07:57:36.294Z,99272.97
2024-01-18T08:00:02.441Z,99278.59
2024-01-18T08:02:28.218Z,99282.72
2024-01-18T08:04:53.993Z,99283.38
2024-01-18T08:07:19.746Z,99282.81
2024-01-18T08:09:45.510Z,99275.31
2024-01-18T08:12:11.337Z,99282.41
2024-01-18T08:14:44.384Z,99278.38
2024-01-18T08:17:10.011Z,99260.03
2024-01-18T08:19:35.842Z,99257.28
2024-01-18T08:22:01.704Z,99261.66
2024-01-18T08:24:27.513Z,99264.19
2024-01-18T08:26:53.237Z,99257.03
2024-01-18T08:29:18.906Z,99245.22
2024-01-18T08:31:44.598Z,99252.38
2024-01-18T08:34:12.112Z,99244.88
2024-01-18T08:36:38.210Z,99249.19
2024-01-18T08:39:04.068Z,99244.06
2024-01-18T08:41:29.755Z,99247.38
2024-01-18T08:43:55.425Z,99246.19
2024-01-18T08:46:21.152Z,99238.75
2024-01-18T08:48:47.033Z,99238.56
2024-01-18T08:51:15.669Z,99235.81
2024-01-18T08:53:41.987Z,99238.94
2024-01-18T08:56:08.620Z,99237.22
2024-01-18T08:58:34.710Z,99227.69
2024-01-18T09:01:01.679Z,99218.72
2024-01-18T09:03:27.571Z,99212.81
2024-01-18T09:05:53.284Z,99225.44
2024-01-18T09:08:19.054Z,99223.41
2024-01-18T09:10:44.874Z,99210.22
2024-01-18T09:13:11.217Z,99209.94
2024-01-18T09:15:37.507Z,99194.53
2024-01-18T09:18:03.427Z,99197.06
2024-01-18T09:20:29.268Z,99191.50
2024-01-18T09:23:05.239Z,99184.94
2024-01-18T09:25:37.975Z,99171.47
2024-01-18T09:28:04.786Z,99171.69
2024-01-18T09:30:30.581Z,99175.34
2024-01-18T09:32:56.327Z,99175.44
2024-01-18T09:35:22.338Z,99169.53
2024-01-18T09:37:48.493Z,99174.59
2024-01-18T09:40:14.490Z,99174.59
2024-01-18T09:42:45.437Z,99181.19
2024-01-18T09:45:14.877Z,99180.03
2024-01-18T09:47:42.414Z,99158.47
2024-01-18T09:50:10.070Z,99156.06
2024-01-18T09:52:35.824Z,99146.56
2024-01-18T09:55:01.689Z,99139.72
2024-01-18T09:57:33.875Z,99142.59
2024-01-18T10:00:06.522Z,99124.16
2024-01-18T10:02:33.679Z,99124.16
2024-01-18T10:05:01.960Z,99127.94
2024-01-18T10:07:31.206Z,99124.75
2024-01-18T10:09:57.036Z,99119.91
2024-01-18T10:12:23.188Z,99115.06
2024-01-18T10:14:48.966Z,99115.06
2024-01-18T10:17:25.276Z,99121.53
2024-01-18T10:19:56.837Z,99106.75
2024-01-18T10:22:23.359Z,99100.25
2024-01-18T10:24:50.280Z,99101.00
2024-01-18T10:27:18.996Z,99089.97
2024-01-18T10:29:44.687Z,99090.56
2024-01-18T10:32:10.516Z,99082.59
2024-01-18T10:34:39.597Z,99083.13
2024-01-18T10:37:05.785Z,99074.34
2024-01-18T10:39:41.918Z,99074.75
2024-01-18T10:42:09.070Z,99079.53
2024-01-18T10:44:45.674Z,99059.44
2024-01-18T10:47:12.514Z,99067.13
2024-01-18T10:49:38.701Z,99052.97
2024-01-18T10:52:05.317Z,99044.41
2024-01-18T10:54:37.183Z,99033.09
2024-01-18T10:57:05.028Z,99046.59
2024-01-18T10:59:31.538Z,99039.53
2024-01-18T11:02:00.481Z,99042.16
2024-01-18T11:04:30.835Z,99023.91
2024-01-18T11:06:57.056Z,99022.03
2024-01-18T11:09:28.153Z,99019.44
2024-01-18T11:11:55.146Z,99011.88
2024-01-18T11:14:21.776Z,98997.00
2024-01-18T11:16:47.565Z,99002.63
2024-01-18T11:19:13.395Z,99009.34
2024-01-18T11:21:43.815Z,98998.81
2024-01-18T11:24:12.056Z,98986.97
2024-01-18T11:26:37.961Z,98990.53
2024-01-18T11:29:20.451Z,98982.75
2024-01-18T11:31:53.239Z,98988.31
2024-01-18T11:34:35.834Z,98977.81
2024-01-18T11:37:12.382Z,98974.19
2024-01-18T11:39:50.269Z,98967.53
2024-01-18T11:42:20.547Z,98970.69
2024-01-18T11:44:51.281Z,98954.09
2024-01-18T11:47:19.838Z,98961.34
2024-01-18T11:49:45.841Z,98944.91
2024-01-18T11:52:14.678Z,98934.78
2024-01-18T11:54:43.667Z,98946.59
2024-01-18T11:57:15.825Z,98961.06
2024-01-18T11:59:48.591Z,98956.63
2024-01-18T12:02:15.279Z,98953.03
2024-01-18T12:04:41.917Z,98954.22
2024-01-18T12:07:12.711Z,98960.97
2024-01-18T12:09:39.322Z,98955.06
2024-01-18T12:12:06.103Z,98947.66
2024-01-18T12:14:33.547Z,98947.72
2024-01-18T12:16:59.379Z,98951.09
2024-01-18T12:19:35.261Z,98944.19
2024-01-18T12:22:07.569Z,98951.94
2024-01-18T12:24:33.659Z,98941.66
2024-01-18T12:27:00.523Z,98937.81
2024-01-18T12:29:28.024Z,98937.31
2024-01-18T12:31:53.885Z,98953.31
2024-01-18T12:34:22.951Z,98941.38
2024-01-18T12:36:49.478Z,98924.69
2024-01-18T12:39:20.369Z,98924.09
2024-01-18T12:41:48.563Z,98925.19
2024-01-18T12:44:15.421Z,98923.25
2024-01-18T12:46:41.833Z,98920.19
2024-01-18T12:49:08.793Z,98919.25
2024-01-18T12:51:36.173Z,98906.25
2024-01-18T12:54:02.236Z,98914.69
2024-01-18T12:56:28.523Z,98901.00
2024-01-18T12:58:55.317Z,98894.31
2024-01-18T13:01:32.543Z,98891.56
2024-01-18T13:04:15.786Z,98888.81
2024-01-18T13:06:51.221Z,98887.63
2024-01-18T13:09:28.626Z,98883.88
2024-01-18T13:12:00.796Z,98879.28
2024-01-18T13:14:31.762Z,98890.41
2024-01-18T13:16:58.384Z,98886.16
2024-01-18T13:19:24.782Z,98870.47
2024-01-18T13:21:53.625Z,98876.38
2024-01-18T13:24:20.247Z,98867.19
2024-01-18T13:26:47.589Z,98873.84
2024-01-18T13:29:13.278Z,98872.91
2024-01-18T13:31:40.153Z,98878.00
2024-01-18T13:34:06.558Z,98879.84
2024-01-18T13:36:34.091Z,98881.38
2024-01-18T13:39:00.817Z,98880.34
2024-01-18T13:41:27.634Z,98882.38
2024-01-18T13:43:54.984Z,98878.16
2024-01-18T13:46:21.714Z,98881.75
2024-01-18T13:48:47.596Z,98890.38
2024-01-18T13:51:14.944Z,98887.59
2024-01-18T13:53:41.609Z,98880.41
2024-01-18T13:56:07.478Z,98884.06
2024-01-18T13:58:33.523Z,98884.69
2024-01-18T14:01:00.550Z,98881.44
2024-01-18T14:03:26.640Z,98884.56
2024-01-18T14:05:52.479Z,98878.69
2024-01-18T14:08:18.221Z,98875.28
2024-01-18T14:10:44.247Z,98881.31
2024-01-18T14:13:09.958Z,98869.13
2024-01-18T14:15:39.683Z,98870.50
2024-01-18T14:18:06.001Z,98870.63
2024-01-18T14:20:31.827Z,98870.53
2024-01-18T14:22:57.674Z,98869.59
2024-01-18T14:25:23.818Z,98871.03
2024-01-18T14:27:49.818Z,98871.75
2024-01-18T14:30:15.779Z,98859.34
2024-01-18T14:32:41.614Z,98873.47
2024-01-18T14:35:08.210Z,98877.94
2024-01-18T14:37:34.398Z,98876.94
2024-01-18T14:40:00.434Z,98875.19
2024-01-18T14:42:26.192Z,98877.19
2024-01-18T14:44:51.990Z,98872.63
2024-01-18T14:47:25.089Z,98882.91
2024-01-18T14:49:54.769Z,98884.34
2024-01-18T14:52:21.413Z,98891.84
2024-01-18T14:54:52.047Z,98883.31
2024-01-18T14:57:18.730Z,98897.13
2024-01-18T14:59:44.886Z,98900.97
2024-01-18T15:02:10.975Z,98903.59
2024-01-18T15:04:37.316Z,98895.75
2024-01-18T15:07:05.064Z,98896.41
2024-01-18T15:09:31.905Z,98903.81
2024-01-18T15:11:59.189Z,98908.25
2024-01-18T15:14:24.915Z,98903.06
2024-01-18T15:16:51.800Z,98900.50
2024-01-18T15:19:18.209Z,98905.31
2024-01-18T15:21:47.923Z,98900.69
2024-01-18T15:24:14.369Z,98910.19
2024-01-18T15:26:40.205Z,98917.41
2024-01-18T15:29:06.627Z,98917.66
2024-01-18T15:31:33.449Z,98921.44
2024-01-18T15:33:59.893Z,98932.09
2024-01-18T15:36:26.307Z,98927.84
2024-01-18T15:38:52.132Z,98931.28
2024-01-18T15:41:17.938Z,98937.31
2024-01-18T15:43:43.778Z,98942.31
2024-01-18T15:46:10.844Z,98936.69
2024-01-18T15:48:37.517Z,98936.50
2024-01-18T15:51:04.343Z,98936.03
2024-01-18T15:53:30.985Z,98932.63
2024-01-18T15:55:56.768Z,98931.38
2024-01-18T15:58:22.713Z,98945.03
2024-01-18T16:00:48.638Z,98936.41
2024-01-18T16:03:14.509Z,98936.59
2024-01-18T16:05:40.861Z,98931.63
2024-01-18T16:08:06.926Z,98935.19
2024-01-18T16:10:32.869Z,98922.16
2024-01-18T16:13:01.501Z,98918.34
2024-01-18T16:15:27.561Z,98915.13
2024-01-18T16:17:53.473Z,98914.31
2024-01-18T16:20:19.272Z,98918.16
2024-01-18T16:22:45.051Z,98911.72
2024-01-18T16:25:11.078Z,98907.34
2024-01-18T16:27:36.958Z,98894.94
2024-01-18T16:30:07.045Z,98892.69
2024-01-18T16:32:39.546Z,98884.91
2024-01-18T16:35:06.237Z,98884.13
2024-01-18T16:37:32.082Z,98887.38
2024-01-18T16:39:57.910Z,98895.00
2024-01-18T16:42:24.067Z,98887.41
2024-01-18T16:44:50.120Z,98883.34
2024-01-18T16:47:15.926Z,98886.78
2024-01-18T16:49:41.834Z,98884.38
2024-01-18T16:52:07.805Z,98881.16
2024-01-18T16:54:33.549Z,98874.56
2024-01-18T16:56:59.372Z,98874.56
2024-01-18T16:59:25.176Z,98866.56
2024-01-18T17:01:50.869Z,98879.38
2024-01-18T17:04:16.666Z,98884.81
2024-01-18T17:06:43.501Z,98885.38
2024-01-18T17:09:09.585Z,98879.38
2024-01-18T17:11:37.787Z,98881.59
2024-01-18T17:14:04.693Z,98884.22
2024-01-18T17:16:30.665Z,98871.00
2024-01-18T17:18:56.475Z,98873.78
2024-01-18T17:21:22.494Z,98878.63
2024-01-18T17:23:48.305Z,98881.00
2024-01-18T17:26:14.125Z,98874.78
2024-01-18T17:28:44.055Z,98875.44
2024-01-18T17:31:13.464Z,98874.41
2024-01-18T17:33:44.859Z,98881.81
2024-01-18T17:36:10.822Z,98868.81
2024-01-18T17:38:36.820Z,98868.22
2024-01-18T17:41:02.600Z,98860.16
2024-01-18T17:43:28.312Z,98864.59
2024-01-18T17:45:54.309Z,98865.19
2024-01-18T17:48:21.072Z,98861.38
2024-01-18T17:50:47.477Z,98872.41
2024-01-18T17:53:13.800Z,98860.97
2024-01-18T17:55:40.133Z,98862.97
2024-01-18T17:58:06.347Z,98865.72
2024-01-18T18:00:36.391Z,98858.72
2024-01-18T18:03:05.977Z,98862.50
2024-01-18T18:05:31.730Z,98861.34
2024-01-18T18:07:57.509Z,98851.94
2024-01-18T18:10:23.286Z,98844.13
2024-01-18T18:12:49.047Z,98847.31
2024-01-18T18:15:14.762Z,98853.53
2024-01-18T18:17:42.271Z,98862.53
2024-01-18T18:20:09.899Z,98862.13
2024-01-18T18:22:35.583Z,98863.50
2024-01-18T18:25:02.393Z,98867.72
2024-01-18T18:27:28.127Z,98859.13
2024-01-18T18:29:53.957Z,98862.91
2024-01-18T18:32:19.737Z,98847.31
2024-01-18T18:34:45.548Z,98857.97
2024-01-18T18:37:11.463Z,98861.75
2024-01-18T18:39:37.857Z,98853.53
2024-01-18T18:42:03.815Z,98858.16
2024-01-18T18:44:29.582Z,98856.16
2024-01-18T18:46:55.877Z,98855.13
2024-01-18T18:49:21.670Z,98851.13
2024-01-18T18:51:47.383Z,98855.91
2024-01-18T18:54:13.081Z,98852.91
2024-01-18T18:56:38.825Z,98854.91
2024-01-18T18:59:07.360Z,98853.09
2024-01-18T19:01:34.424Z,98850.28
2024-01-18T19:04:00.315Z,98853.09
2024-01-18T19:06:26.087Z,98845.28
2024-01-18T19:08:52.980Z,98848.47
2024-01-18T19:11:19.287Z,98844.84
2024-01-18T19:13:45.323Z,98841.91
2024-01-18T19:16:12.759Z,98836.47
2024-01-18T19:18:41.289Z,98851.94
2024-01-18T19:21:08.624Z,98850.75
2024-01-18T19:23:34.957Z,98857.56
2024-01-18T19:26:01.469Z,98861.16
2024-01-18T19:28:27.280Z,98860.75
2024-01-18T19:30:53.654Z,98857.16
2024-01-18T19:33:19.420Z,98852.09
2024-01-18T19:35:45.229Z,98858.88
2024-01-18T19:38:11.055Z,98849.78
2024-01-18T19:40:36.785Z,98854.41
2024-01-18T19:43:02.616Z,98867.63
2024-01-18T19:45:28.435Z,98870.03
2024-01-18T19:47:57.346Z,98867.22
2024-01-18T19:50:24.250Z,98859.66
2024-01-18T19:52:51.759Z,98865.88
2024-01-18T19:55:18.411Z,98855.88
2024-01-18T19:57:45.512Z,98858.09
2024-01-18T20:00:11.782Z,98865.19
2024-01-18T20:02:37.647Z,98863.00
2024-01-18T20:05:03.842Z,98868.81
2024-01-18T20:07:34.742Z,98871.00
2024-01-18T20:10:01.471Z,98863.38
2024-01-18T20:12:30.217Z,98862.78
2024-01-18T20:15:00.058Z,98850.75
2024-01-18T20:17:26.744Z,98848.75
2024-01-18T20:19:52.880Z,98852.94
2024-01-18T20:22:19.804Z,98841.28
2024-01-18T20:24:46.619Z,98837.13
2024-01-18T20:27:12.635Z,98846.72
2024-01-18T20:29:39.026Z,98837.72
2024-01-18T20:32:06.505Z,98846.13
2024-01-18T20:34:32.542Z,98849.09
2024-01-18T20:36:58.459Z,98840.47
2024-01-18T20:39:24.371Z,98853.06
2024-01-18T20:41:50.586Z,98854.84
2024-01-18T20:44:16.348Z,98861.66
2024-01-18T20:46:42.871Z,98867.22
2024-01-18T20:49:11.707Z,98875.44
2024-01-18T20:51:38.738Z,98882.84
2024-01-18T20:54:04.473Z,98874.81
2024-01-18T20:56:30.249Z,98889.91
2024-01-18T20:58:56.106Z,98886.69
2024-01-18T21:01:21.857Z,98891.72
2024-01-18T21:03:47.604Z,98897.31
2024-01-18T21:06:13.415Z,98890.94
2024-01-18T21:08:39.395Z,98895.34
2024-01-18T21:11:05.958Z,98902.97
2024-01-18T21:13:32.030Z,98905.41
2024-01-18T21:15:57.878Z,98906.59
2024-01-18T21:18:23.683Z,98895.75
2024-01-18T21:20:50.608Z,98899.78
2024-01-18T21:23:16.518Z,98895.97
2024-01-18T21:25:42.251Z,98894.59
2024-01-18T21:28:08.064Z,98896.41
2024-01-18T21:30:33.786Z,98895.78
2024-01-18T21:32:59.570Z,98889.97
2024-01-18T21:35:25.546Z,98895.22
2024-01-18T21:37:53.878Z,98896.59
2024-01-18T21:40:19.670Z,98890.59
2024-01-18T21:42:46.241Z,98891.03
2024-01-18T21:45:12.634Z,98900.63
2024-01-18T21:47:38.454Z,98892.22
2024-01-18T21:50:04.760Z,98886.59
2024-01-18T21:52:31.327Z,98883.81
2024-01-18T21:54:57.051Z,98885.81
2024-01-18T21:57:23.010Z,98877.41
2024-01-18T21:59:49.077Z,98884.25
2024-01-18T22:02:15.197Z,98881.22
2024-01-18T22:04:41.361Z,98877.66
2024-01-18T22:07:08.213Z,98874.44
2024-01-18T22:09:41.467Z,98872.66
2024-01-18T22:12:08.588Z,98865.50
2024-01-18T22:14:34.367Z,98861.28
2024-01-18T22:17:00.177Z,98857.28
2024-01-18T22:19:39.816Z,98862.28
2024-01-18T22:22:11.539Z,98864.34
2024-01-18T22:24:37.290Z,98858.31
2024-01-18T22:27:03.036Z,98856.91
2024-01-18T22:29:28.956Z,98855.94
2024-01-18T22:31:54.709Z,98861.75
2024-01-18T22:34:20.425Z,98857.34
2024-01-18T22:36:46.253Z,98850.34
2024-01-18T22:39:12.034Z,98858.72
2024-01-18T22:41:37.774Z,98855.72
2024-01-18T22:44:03.504Z,98841.91
2024-01-18T22:46:31.100Z,98838.28
2024-01-18T22:49:00.450Z,98846.28
2024-01-18T22:51:26.360Z,98829.66
2024-01-18T22:53:52.057Z,98829.28
2024-01-18T22:56:17.806Z,98824.09
2024-01-18T22:58:43.522Z,98833.72
2024-01-18T23:01:10.593Z,98818.31
2024-01-18T23:03:36.894Z,98824.25
2024-01-18T23:06:04.120Z,98816.44
2024-01-18T23:08:30.278Z,98812.63
2024-01-18T23:10:56.986Z,98812.41
2024-01-18T23:13:22.668Z,98820.41
2024-01-18T23:15:48.352Z,98827.44
2024-01-18T23:18:14.192Z,98828.63
2024-01-18T23:20:40.040Z,98828.63
2024-01-18T23:23:05.742Z,98834.00
2024-01-18T23:25:34.108Z,98838.59
2024-01-18T23:27:59.818Z,98836.19
2024-01-18T23:30:25.597Z,98827.81
2024-01-18T23:32:51.350Z,98828.03
2024-01-18T23:35:17.201Z,98830.03
2024-01-18T23:37:42.896Z,98825.25
2024-01-18T23:40:09.029Z,98820.63
2024-01-18T23:42:34.834Z,98825.03
2024-01-18T23:45:00.601Z,98816.03
2024-01-18T23:47:26.370Z,98820.25
2024-01-18T23:49:58.382Z,98823.88
2024-01-18T23:52:27.954Z,98817.25
2024-01-18T23:54:54.585Z,98834.50
2024-01-18T23:57:20.702Z,98821.28
2024-01-18T23:59:46.468Z,98813.25
